Beauregard Regional Airport
KDRI : now visible

Airfield :











YOU CAN JOIN US ON...

 
LOGIN :

Register | Disclaimer

   EN    FR    IT 

 









Legend :    VFR   Marginal VFR   IFR   Intensive IFR   Very Intensive IFR
Visi :
Ceiling :
>= 8 km
>= 3000ft
5 to 8 km
1000 to 3000 ft
1500m to 5 km
500 to 1000 ft
800 to 1500m
200 to 500 ft
< 800m
< 200 ft
Symbols :   Thunderstorms  Fog  Heavy snow  Heavy precipitations  Wind > 20 kt






- Airport Elevation : 202 ft


KDRI - Beauregard Regional

CURRENT METAR :
  • 072035Z AUTO 13004KT 10SM CLR 33/20 A3007 RMK AO2 T03300202

EXPIRED METARs :
  • 072015Z AUTO 06004KT 10SM CLR 33/21 A3007 RMK AO2 T03290209
  • 071955Z AUTO 16005KT 10SM SCT043 33/21 A3008 RMK AO2 T03270207
  • 071935Z AUTO 15003KT 10SM SCT043 32/21 A3008 RMK AO2 T03220206
  • 071915Z AUTO 00000KT 10SM SCT041 33/21 A3009 RMK AO2 T03250210
  • 071855Z AUTO 11003KT 10SM BKN039 32/21 A3009 RMK AO2 T03180210
  • 071835Z AUTO 03004KT 10SM SCT039 SCT047 32/21 A3010 RMK AO2 T03200212
  • 071815Z AUTO 00000KT 10SM SCT039 SCT047 31/21 A3010 RMK AO2 T03130213
  • 071755Z AUTO 00000KT 10SM SCT037 31/21 A3010 RMK AO2 T03130211 10313 20233

TAF N/A
KZHU FIR / North America



MET'MAP, your aeronautical weather chart ! - Copyright ORBIFLY December 2007 - Disclaimer

ORBIFLY MET'MAP TEAM :

Programming & Development : Alexandra Zaïnal
Concept & original design : Baudouin d'Aumeries
Assistance for programming : Marc-Olivier Méhu
Technical & hardware support : Manuel Goepfert

Contact : metmap@orbifly.com




SOURCES & CREDITS :

   NOAA       Earth
Advisory